createdAt,value
2024-03-16T00:00:35.959Z,307.90
2024-03-16T00:01:28.587Z,307.33
2024-03-16T00:02:23.876Z,304.76
2024-03-16T00:03:18.907Z,303.07
2024-03-16T00:04:14.179Z,306.46
2024-03-16T00:05:09.264Z,308.19
2024-03-16T00:06:04.315Z,307.04
2024-03-16T00:06:59.458Z,305.04
2024-03-16T00:07:54.806Z,309.35
2024-03-16T00:08:49.782Z,309.64
2024-03-16T00:09:44.831Z,308.77
2024-03-16T00:10:40.086Z,304.76
2024-03-16T00:11:35.143Z,306.46
2024-03-16T00:12:30.616Z,306.46
2024-03-16T00:13:25.612Z,307.33
2024-03-16T00:14:20.618Z,307.61
2024-03-16T00:15:15.687Z,308.19
2024-03-16T00:16:10.913Z,310.23
2024-03-16T00:17:06.904Z,305.89
2024-03-16T00:18:01.421Z,303.07
2024-03-16T00:18:56.739Z,300.29
2024-03-16T00:19:51.849Z,302.23
2024-03-16T00:20:46.901Z,299.20
2024-03-16T00:21:42.076Z,299.74
2024-03-16T00:22:37.028Z,296.23
2024-03-16T00:23:32.272Z,295.69
2024-03-16T00:24:27.655Z,294.63
2024-03-16T00:25:22.972Z,295.16
2024-03-16T00:26:18.030Z,294.63
2024-03-16T00:27:13.164Z,297.57
2024-03-16T00:28:08.365Z,299.20
2024-03-16T00:29:03.676Z,297.57
2024-03-16T00:29:58.693Z,295.43
2024-03-16T00:30:54.048Z,297.57
2024-03-16T00:31:48.961Z,300.84
2024-03-16T00:32:44.223Z,302.23
2024-03-16T00:33:39.816Z,301.95
2024-03-16T00:34:34.652Z,301.12
2024-03-16T00:35:29.833Z,299.20
2024-03-16T00:36:25.155Z,295.96
2024-03-16T00:37:20.243Z,298.38
2024-03-16T00:38:15.527Z,294.90
2024-03-16T00:39:10.740Z,293.05
2024-03-16T00:40:05.886Z,294.10
2024-03-16T00:41:00.852Z,296.49
2024-03-16T00:41:56.109Z,296.23
2024-03-16T00:42:51.187Z,301.12
2024-03-16T00:43:46.567Z,298.65
2024-03-16T00:44:41.499Z,296.76
2024-03-16T00:45:36.671Z,301.67
2024-03-16T00:46:31.962Z,306.18
2024-03-16T00:47:27.179Z,304.76
2024-03-16T00:48:22.764Z,308.77
2024-03-16T00:49:17.976Z,312.89
2024-03-16T00:50:13.088Z,312.60
2024-03-16T00:51:08.173Z,313.19
2024-03-16T00:52:03.409Z,319.29
2024-03-16T00:52:58.446Z,319.91
2024-03-16T00:53:53.838Z,321.16
2024-03-16T00:54:48.920Z,324.02
2024-03-16T00:55:44.117Z,328.89
2024-03-16T00:56:39.369Z,327.58
2024-03-16T00:57:35.851Z,329.88
2024-03-16T00:58:30.002Z,329.88
2024-03-16T00:59:25.208Z,333.57
2024-03-16T01:00:20.330Z,333.23
2024-03-16T01:01:15.711Z,338.39
2024-03-16T01:02:10.917Z,340.85
2024-03-16T01:03:05.902Z,342.63
2024-03-16T01:04:01.300Z,343.34
2024-03-16T01:04:56.507Z,344.79
2024-03-16T01:05:51.778Z,345.51
2024-03-16T01:06:46.760Z,341.56
2024-03-16T01:07:42.362Z,340.14
2024-03-16T01:08:37.689Z,341.56
2024-03-16T01:09:33.175Z,341.91
2024-03-16T01:10:28.229Z,341.56
2024-03-16T01:11:23.523Z,346.61
2024-03-16T01:12:18.499Z,348.08
2024-03-16T01:13:13.649Z,354.47
2024-03-16T01:14:08.761Z,358.73
2024-03-16T01:15:04.109Z,364.31
2024-03-16T01:15:59.621Z,365.93
2024-03-16T01:16:54.938Z,370.06
2024-03-16T01:17:50.224Z,376.00
2024-03-16T01:18:45.498Z,382.36
2024-03-16T01:19:40.937Z,383.68
2024-03-16T01:20:36.166Z,387.24
2024-03-16T01:21:31.301Z,395.51
2024-03-16T01:22:26.726Z,398.11
2024-03-16T01:23:22.133Z,397.40
2024-03-16T01:24:17.791Z,399.78
2024-03-16T01:25:12.868Z,400.98
2024-03-16T01:26:08.321Z,401.22
2024-03-16T01:27:03.465Z,403.90
2024-03-16T01:27:58.984Z,406.61
2024-03-16T01:28:54.530Z,412.39
2024-03-16T01:29:49.622Z,415.21
2024-03-16T01:30:44.638Z,417.29
2024-03-16T01:31:39.711Z,417.55
2024-03-16T01:32:35.010Z,419.13
2024-03-16T01:33:30.497Z,422.58
2024-03-16T01:34:25.562Z,425.55
2024-03-16T01:35:20.527Z,422.05
2024-03-16T01:36:15.600Z,423.65
2024-03-16T01:37:11.029Z,427.73
2024-03-16T01:38:05.931Z,428.56
2024-03-16T01:39:01.417Z,429.94
2024-03-16T01:39:56.991Z,433.29
2024-03-16T01:40:51.908Z,437.27
2024-03-16T01:41:46.991Z,441.61
2024-03-16T01:42:42.287Z,441.90
2024-03-16T01:43:37.485Z,442.78
2024-03-16T01:44:32.616Z,443.67
2024-03-16T01:45:28.141Z,447.84
2024-03-16T01:46:23.353Z,445.45
2024-03-16T01:47:18.473Z,447.24
2024-03-16T01:48:14.654Z,450.56
2024-03-16T01:49:09.421Z,451.78
2024-03-16T01:50:03.960Z,452.09
2024-03-16T01:50:59.009Z,453.63
2024-03-16T01:51:54.201Z,457.36
2024-03-16T01:52:49.531Z,454.25
2024-03-16T01:53:44.631Z,453.01
2024-03-16T01:54:39.715Z,454.25
2024-03-16T01:55:34.772Z,455.80
2024-03-16T01:56:30.645Z,455.49
2024-03-16T01:57:25.026Z,457.05
2024-03-16T01:58:19.989Z,457.05
2024-03-16T01:59:15.143Z,457.36
2024-03-16T02:00:10.142Z,453.32
2024-03-16T02:01:05.283Z,452.40
2024-03-16T02:02:00.393Z,454.25
2024-03-16T02:02:55.336Z,453.01
2024-03-16T02:03:50.672Z,456.11
2024-03-16T02:04:45.515Z,454.25
2024-03-16T02:05:40.611Z,455.49
2024-03-16T02:06:35.626Z,456.11
2024-03-16T02:07:30.746Z,455.49
2024-03-16T02:08:26.282Z,453.32
2024-03-16T02:09:23.818Z,455.18
2024-03-16T02:10:18.076Z,452.09
2024-03-16T02:11:13.070Z,451.78
2024-03-16T02:12:08.011Z,453.01
2024-03-16T02:13:03.179Z,453.32
2024-03-16T02:13:58.083Z,453.63
2024-03-16T02:14:53.366Z,451.78
2024-03-16T02:15:48.242Z,452.70
2024-03-16T02:16:43.342Z,456.11
2024-03-16T02:17:38.427Z,457.67
2024-03-16T02:18:34.529Z,458.62
2024-03-16T02:19:29.761Z,459.89
2024-03-16T02:20:25.717Z,458.30
2024-03-16T02:21:20.806Z,459.57
2024-03-16T02:22:16.438Z,457.36
2024-03-16T02:23:12.043Z,459.25
2024-03-16T02:24:07.161Z,457.36
2024-03-16T02:25:02.978Z,457.99
2024-03-16T02:25:58.340Z,457.05
2024-03-16T02:26:53.637Z,458.62
2024-03-16T02:27:49.391Z,457.99
2024-03-16T02:28:44.823Z,460.52
2024-03-16T02:29:40.478Z,461.16
2024-03-16T02:30:36.229Z,461.16
2024-03-16T02:31:31.341Z,466.32
2024-03-16T02:32:27.362Z,466.97
2024-03-16T02:33:22.561Z,467.62
2024-03-16T02:34:17.630Z,468.61
2024-03-16T02:35:13.940Z,469.60
2024-03-16T02:36:08.842Z,469.93
2024-03-16T02:37:04.725Z,468.94
2024-03-16T02:38:00.098Z,469.27
2024-03-16T02:38:55.145Z,470.60
2024-03-16T02:39:51.024Z,470.60
2024-03-16T02:40:46.401Z,469.60
2024-03-16T02:41:41.493Z,470.26
2024-03-16T02:42:38.119Z,470.93
2024-03-16T02:43:33.392Z,471.93
2024-03-16T02:44:29.282Z,470.60
2024-03-16T02:45:24.372Z,472.93
2024-03-16T02:46:19.671Z,473.27
2024-03-16T02:47:15.392Z,476.31
2024-03-16T02:48:10.854Z,477.33
2024-03-16T02:49:07.219Z,479.74
2024-03-16T02:50:02.090Z,482.51
2024-03-16T02:50:57.184Z,481.82
2024-03-16T02:51:53.189Z,482.51
2024-03-16T02:52:48.534Z,481.47
2024-03-16T02:53:43.849Z,481.47
2024-03-16T02:54:39.992Z,481.47
2024-03-16T02:55:35.094Z,482.16
2024-03-16T02:56:31.154Z,482.86
2024-03-16T02:57:26.253Z,486.03
2024-03-16T02:58:21.531Z,486.74
2024-03-16T02:59:17.462Z,488.88
2024-03-16T03:00:12.895Z,488.88
2024-03-16T03:01:08.136Z,489.96
2024-03-16T03:02:03.181Z,487.45
2024-03-16T03:02:59.502Z,485.32
2024-03-16T03:03:54.649Z,487.45
2024-03-16T03:04:49.945Z,488.88
2024-03-16T03:05:45.749Z,487.81
2024-03-16T03:06:40.920Z,489.60
2024-03-16T03:07:36.842Z,487.45
2024-03-16T03:08:32.043Z,489.60
2024-03-16T03:09:27.541Z,492.49
2024-03-16T03:10:23.156Z,493.22
2024-03-16T03:11:18.189Z,496.52
2024-03-16T03:12:13.669Z,499.88
2024-03-16T03:13:09.651Z,502.13
2024-03-16T03:14:04.985Z,495.42
2024-03-16T03:15:00.877Z,494.32
2024-03-16T03:15:55.991Z,492.13
2024-03-16T03:16:51.206Z,497.27
2024-03-16T03:17:47.022Z,492.49
2024-03-16T03:18:42.311Z,495.05
2024-03-16T03:19:37.325Z,498.75
2024-03-16T03:20:32.451Z,500.62
2024-03-16T03:21:27.612Z,497.64
2024-03-16T03:22:23.011Z,503.27
2024-03-16T03:23:18.392Z,502.51
2024-03-16T03:24:13.660Z,503.65
2024-03-16T03:25:09.695Z,500.62
2024-03-16T03:26:05.127Z,501.76
2024-03-16T03:27:00.654Z,499.88
2024-03-16T03:27:55.649Z,502.51
2024-03-16T03:28:50.781Z,496.52
2024-03-16T03:29:45.925Z,499.50
2024-03-16T03:30:41.650Z,504.41
2024-03-16T03:31:35.989Z,507.10
2024-03-16T03:32:31.081Z,509.03
2024-03-16T03:33:26.139Z,508.64
2024-03-16T03:34:21.143Z,509.81
2024-03-16T03:35:16.276Z,509.03
2024-03-16T03:36:11.192Z,508.64
2024-03-16T03:37:06.159Z,506.71
2024-03-16T03:38:01.312Z,506.71
2024-03-16T03:38:56.356Z,502.89
2024-03-16T03:39:51.456Z,501.38
2024-03-16T03:40:46.470Z,500.62
2024-03-16T03:41:42.147Z,499.88
2024-03-16T03:42:36.698Z,503.65
2024-03-16T03:43:31.837Z,504.03
2024-03-16T03:44:26.771Z,506.33
2024-03-16T03:45:22.876Z,508.26
2024-03-16T03:46:16.874Z,510.98
2024-03-16T03:47:12.001Z,510.98
2024-03-16T03:48:06.955Z,510.98
2024-03-16T03:49:02.129Z,512.55
2024-03-16T03:49:57.406Z,514.93
2024-03-16T03:50:52.438Z,512.95
2024-03-16T03:51:48.934Z,509.42
2024-03-16T03:52:44.230Z,503.65
2024-03-16T03:53:39.995Z,504.41
2024-03-16T03:54:35.339Z,505.56
2024-03-16T03:55:30.586Z,507.87
2024-03-16T03:56:26.243Z,509.81
2024-03-16T03:57:21.373Z,511.38
2024-03-16T03:58:17.301Z,510.98
2024-03-16T03:59:12.275Z,510.20
2024-03-16T04:00:07.602Z,512.16
2024-03-16T04:01:03.543Z,511.38
2024-03-16T04:01:58.866Z,514.14
2024-03-16T04:02:53.941Z,512.95
2024-03-16T04:03:50.526Z,509.81
2024-03-16T04:04:45.797Z,508.26
2024-03-16T04:05:41.600Z,491.40
2024-03-16T04:06:36.952Z,489.24
2024-03-16T04:07:31.983Z,487.45
2024-03-16T04:08:27.970Z,494.32
2024-03-16T04:09:23.157Z,498.01
2024-03-16T04:10:19.080Z,499.13
2024-03-16T04:11:14.197Z,502.13
2024-03-16T04:12:09.601Z,506.71
2024-03-16T04:13:05.116Z,505.56
2024-03-16T04:14:00.366Z,505.94
2024-03-16T04:14:55.568Z,507.10
2024-03-16T04:15:51.922Z,506.71
2024-03-16T04:16:47.116Z,505.94
2024-03-16T04:17:42.932Z,507.48
2024-03-16T04:18:38.114Z,508.64
2024-03-16T04:19:33.782Z,507.87
2024-03-16T04:20:29.193Z,509.81
2024-03-16T04:21:24.327Z,507.48
2024-03-16T04:22:20.214Z,506.71
2024-03-16T04:23:15.241Z,501.38
2024-03-16T04:24:10.561Z,502.51
2024-03-16T04:25:06.469Z,502.51
2024-03-16T04:26:01.510Z,499.13
2024-03-16T04:26:56.705Z,502.51
2024-03-16T04:27:53.082Z,499.88
2024-03-16T04:28:48.127Z,501.00
2024-03-16T04:29:44.234Z,499.88
2024-03-16T04:30:39.471Z,499.88
2024-03-16T04:31:35.093Z,495.05
2024-03-16T04:32:30.658Z,490.32
2024-03-16T04:33:25.748Z,492.49
2024-03-16T04:34:21.606Z,488.17
2024-03-16T04:35:16.785Z,488.52
2024-03-16T04:36:12.131Z,490.68
2024-03-16T04:37:08.143Z,488.88
2024-03-16T04:38:03.164Z,490.32
2024-03-16T04:38:58.447Z,492.13
2024-03-16T04:39:54.619Z,491.40
2024-03-16T04:40:50.632Z,491.77
2024-03-16T04:41:45.489Z,492.86
2024-03-16T04:42:40.848Z,491.77
2024-03-16T04:43:36.223Z,490.68
2024-03-16T04:44:31.809Z,491.04
2024-03-16T04:45:27.213Z,489.60
2024-03-16T04:46:23.482Z,487.81
2024-03-16T04:47:18.044Z,484.97
2024-03-16T04:48:13.261Z,484.97
2024-03-16T04:49:09.587Z,485.68
2024-03-16T04:50:04.789Z,485.32
2024-03-16T04:50:59.917Z,487.45
2024-03-16T04:51:55.260Z,488.17
2024-03-16T04:52:51.032Z,486.74
2024-03-16T04:53:46.492Z,489.24
2024-03-16T04:54:41.770Z,489.24
2024-03-16T04:55:37.695Z,490.68
2024-03-16T04:56:32.801Z,492.49
2024-03-16T04:57:28.573Z,491.04
2024-03-16T04:58:23.726Z,486.03
2024-03-16T04:59:18.879Z,487.10
2024-03-16T05:00:14.738Z,486.03
2024-03-16T05:01:09.800Z,485.32
2024-03-16T05:02:05.017Z,485.68
2024-03-16T05:03:01.120Z,485.68
2024-03-16T05:03:56.445Z,487.81
2024-03-16T05:04:52.294Z,486.39
2024-03-16T05:05:47.466Z,486.03
2024-03-16T05:06:42.594Z,491.77
2024-03-16T05:07:38.273Z,486.03
2024-03-16T05:08:33.567Z,485.68
2024-03-16T05:09:28.723Z,487.45
2024-03-16T05:10:23.801Z,482.51
2024-03-16T05:11:18.891Z,483.56
2024-03-16T05:12:14.045Z,486.74
2024-03-16T05:13:09.307Z,482.16
2024-03-16T05:14:12.111Z,473.60
2024-03-16T05:15:00.722Z,476.99
2024-03-16T05:15:56.121Z,473.94
2024-03-16T05:16:51.868Z,480.08
2024-03-16T05:17:47.008Z,478.70
2024-03-16T05:18:43.292Z,476.65
2024-03-16T05:19:37.574Z,480.08
2024-03-16T05:20:32.704Z,476.31
2024-03-16T05:21:27.974Z,476.31
2024-03-16T05:22:24.136Z,474.28
2024-03-16T05:23:19.363Z,479.39
2024-03-16T05:24:14.591Z,480.43
2024-03-16T05:25:14.160Z,476.99
2024-03-16T05:26:09.228Z,474.28
2024-03-16T05:27:04.628Z,476.99
2024-03-16T05:27:59.666Z,478.36
2024-03-16T05:28:54.664Z,474.28
2024-03-16T05:29:49.632Z,474.95
2024-03-16T05:30:44.768Z,483.56
2024-03-16T05:31:40.157Z,480.43
2024-03-16T05:32:35.188Z,482.51
2024-03-16T05:33:30.492Z,461.80
2024-03-16T05:34:25.656Z,417.82
2024-03-16T05:35:20.692Z,408.10
2024-03-16T05:36:15.943Z,408.60
2024-03-16T05:37:11.339Z,411.12
2024-03-16T05:38:06.177Z,423.65
2024-03-16T05:39:01.170Z,429.66
2024-03-16T05:39:56.242Z,428.01
2024-03-16T05:40:51.180Z,427.73
2024-03-16T05:41:46.218Z,436.70
2024-03-16T05:42:41.498Z,442.78
2024-03-16T05:43:36.342Z,447.24
2024-03-16T05:44:31.438Z,447.54
2024-03-16T05:45:26.730Z,453.94
2024-03-16T05:46:22.118Z,456.73
2024-03-16T05:47:17.364Z,457.36
2024-03-16T05:48:12.571Z,460.52
2024-03-16T05:49:07.814Z,461.80
2024-03-16T05:50:03.117Z,462.44
2024-03-16T05:50:58.423Z,456.11
2024-03-16T05:51:54.245Z,455.49
2024-03-16T05:52:48.996Z,461.16
2024-03-16T05:53:44.299Z,459.89
2024-03-16T05:54:39.538Z,462.76
2024-03-16T05:55:34.862Z,463.08
2024-03-16T05:56:30.094Z,466.32
2024-03-16T05:57:25.346Z,465.67
2024-03-16T05:58:20.259Z,462.76
2024-03-16T05:59:15.278Z,461.16
2024-03-16T06:00:10.337Z,463.40
2024-03-16T06:01:05.791Z,461.48
2024-03-16T06:02:00.394Z,457.99
2024-03-16T06:02:55.440Z,459.89
2024-03-16T06:03:50.457Z,462.44
2024-03-16T06:04:45.551Z,462.76
2024-03-16T06:05:40.512Z,460.52
2024-03-16T06:06:35.673Z,461.16
2024-03-16T06:07:30.586Z,463.40
2024-03-16T06:08:25.621Z,466.64
2024-03-16T06:09:20.605Z,464.05
2024-03-16T06:10:15.698Z,461.48
2024-03-16T06:11:10.678Z,465.99
2024-03-16T06:12:05.840Z,466.97
2024-03-16T06:13:00.924Z,465.34
2024-03-16T06:13:56.180Z,464.05
2024-03-16T06:14:51.243Z,463.08
2024-03-16T06:15:46.414Z,460.84
2024-03-16T06:16:42.204Z,464.05
2024-03-16T06:17:37.198Z,459.57
2024-03-16T06:18:31.575Z,457.05
2024-03-16T06:19:26.663Z,454.25
2024-03-16T06:20:25.012Z,455.80
2024-03-16T06:21:17.437Z,461.16
2024-03-16T06:22:12.073Z,463.72
2024-03-16T06:23:06.923Z,463.40
2024-03-16T06:24:01.902Z,464.37
2024-03-16T06:24:57.052Z,463.08
2024-03-16T06:25:51.954Z,465.02
2024-03-16T06:26:47.183Z,463.40
2024-03-16T06:27:42.521Z,467.30
2024-03-16T06:28:37.642Z,465.02
2024-03-16T06:29:36.833Z,457.36
2024-03-16T06:30:32.258Z,459.25
2024-03-16T06:31:27.449Z,459.89
2024-03-16T06:32:23.061Z,456.11
2024-03-16T06:33:18.302Z,457.99
2024-03-16T06:34:18.528Z,453.94
2024-03-16T06:35:12.920Z,453.94
2024-03-16T06:36:08.314Z,453.63
2024-03-16T06:37:03.614Z,453.01
2024-03-16T06:37:59.134Z,459.25
2024-03-16T06:38:54.307Z,465.99
2024-03-16T06:39:49.857Z,462.44
2024-03-16T06:40:45.097Z,462.76
2024-03-16T06:41:40.551Z,463.40
2024-03-16T06:42:35.737Z,463.40
2024-03-16T06:43:31.019Z,466.97
2024-03-16T06:44:26.559Z,465.99
2024-03-16T06:45:21.779Z,464.05
2024-03-16T06:46:16.993Z,467.30
2024-03-16T06:47:12.361Z,465.34
2024-03-16T06:48:07.632Z,459.25
2024-03-16T06:49:02.788Z,464.37
2024-03-16T06:49:58.021Z,462.12
2024-03-16T06:50:53.451Z,461.16
2024-03-16T06:51:49.000Z,460.20
2024-03-16T06:52:44.785Z,462.76
2024-03-16T06:53:39.653Z,460.84
2024-03-16T06:54:35.073Z,461.48
2024-03-16T06:55:30.392Z,449.95
2024-03-16T06:56:25.723Z,451.48
2024-03-16T06:57:22.260Z,450.87
2024-03-16T06:58:17.556Z,446.34
2024-03-16T06:59:12.875Z,443.37
2024-03-16T07:00:08.161Z,443.96
2024-03-16T07:01:03.649Z,443.67
2024-03-16T07:01:59.069Z,444.26
2024-03-16T07:02:54.290Z,446.64
2024-03-16T07:03:49.716Z,446.04
2024-03-16T07:04:45.086Z,446.34
2024-03-16T07:05:40.513Z,447.54
2024-03-16T07:06:35.681Z,442.20
2024-03-16T07:07:30.783Z,438.99
2024-03-16T07:08:25.761Z,443.67
2024-03-16T07:09:20.826Z,441.61
2024-03-16T07:10:17.636Z,444.55
2024-03-16T07:11:12.664Z,439.57
2024-03-16T07:12:07.677Z,446.34
2024-03-16T07:13:02.740Z,448.74
2024-03-16T07:13:57.713Z,449.35
2024-03-16T07:14:52.833Z,452.70
2024-03-16T07:15:47.871Z,455.49
2024-03-16T07:16:43.084Z,458.30
2024-03-16T07:17:37.978Z,431.33
2024-03-16T07:18:32.984Z,442.20
2024-03-16T07:19:27.991Z,440.45
2024-03-16T07:20:23.038Z,438.99
2024-03-16T07:21:18.070Z,440.15
2024-03-16T07:22:13.393Z,437.84
2024-03-16T07:23:08.307Z,441.90
2024-03-16T07:24:03.402Z,443.37
2024-03-16T07:24:58.415Z,446.94
2024-03-16T07:25:53.491Z,445.45
2024-03-16T07:26:48.453Z,441.32
2024-03-16T07:27:43.515Z,424.73
2024-03-16T07:28:38.809Z,425.82
2024-03-16T07:29:34.271Z,425.28
2024-03-16T07:30:29.723Z,428.28
2024-03-16T07:31:24.994Z,430.21
2024-03-16T07:32:20.433Z,435.27
2024-03-16T07:33:15.725Z,434.70
2024-03-16T07:34:11.049Z,428.28
2024-03-16T07:35:06.454Z,429.94
2024-03-16T07:36:01.750Z,429.66
2024-03-16T07:36:57.234Z,434.42
2024-03-16T07:37:52.420Z,438.99
2024-03-16T07:38:47.875Z,436.70
2024-03-16T07:39:42.997Z,438.99
2024-03-16T07:40:38.682Z,441.32
2024-03-16T07:41:33.818Z,435.55
2024-03-16T07:42:29.293Z,441.61
2024-03-16T07:43:24.657Z,449.95
2024-03-16T07:44:19.879Z,454.25
2024-03-16T07:45:15.419Z,458.30
2024-03-16T07:46:11.592Z,465.67
2024-03-16T07:47:06.229Z,460.20
2024-03-16T07:48:01.766Z,457.36
2024-03-16T07:48:57.669Z,418.86
2024-03-16T07:49:52.303Z,414.44
2024-03-16T07:50:47.828Z,412.90
2024-03-16T07:51:43.830Z,427.73
2024-03-16T07:52:38.478Z,436.41
2024-03-16T07:53:33.748Z,442.49
2024-03-16T07:54:29.123Z,444.85
2024-03-16T07:55:24.303Z,449.65
2024-03-16T07:56:19.754Z,453.01
2024-03-16T07:57:15.159Z,455.80
2024-03-16T07:58:10.395Z,457.36
2024-03-16T07:59:05.866Z,455.49
2024-03-16T08:00:01.180Z,452.40
2024-03-16T08:00:56.664Z,454.25
2024-03-16T08:01:51.597Z,449.95
2024-03-16T08:02:46.721Z,449.35
2024-03-16T08:03:41.671Z,444.85
2024-03-16T08:04:36.738Z,442.20
2024-03-16T08:05:31.804Z,443.37
2024-03-16T08:06:27.529Z,455.80
2024-03-16T08:07:22.029Z,481.12
2024-03-16T08:08:17.394Z,505.56
2024-03-16T08:09:12.294Z,534.32
2024-03-16T08:10:07.480Z,544.80
2024-03-16T08:11:02.477Z,557.09
2024-03-16T08:11:57.508Z,591.69
2024-03-16T08:12:52.631Z,607.87
2024-03-16T08:13:48.092Z,513.34
2024-03-16T08:14:43.542Z,543.02
2024-03-16T08:15:39.042Z,574.36
2024-03-16T08:16:34.395Z,594.86
2024-03-16T08:17:30.817Z,602.92
2024-03-16T08:18:25.529Z,614.59
2024-03-16T08:19:20.842Z,604.02
2024-03-16T08:20:17.863Z,576.35
2024-03-16T08:21:11.665Z,588.55
2024-03-16T08:22:07.009Z,591.16
2024-03-16T08:23:03.074Z,576.84
2024-03-16T08:23:57.885Z,564.16
2024-03-16T08:24:53.293Z,567.03
2024-03-16T08:25:48.301Z,564.16
2024-03-16T08:26:43.377Z,562.73
2024-03-16T08:27:38.567Z,558.49
2024-03-16T08:28:33.746Z,558.49
2024-03-16T08:29:28.600Z,562.25
2024-03-16T08:30:23.670Z,551.10
2024-03-16T08:31:18.754Z,558.02
2024-03-16T08:32:13.860Z,548.38
2024-03-16T08:33:09.130Z,543.91
2024-03-16T08:34:04.081Z,559.89
2024-03-16T08:34:58.980Z,581.88
2024-03-16T08:35:54.048Z,583.92
2024-03-16T08:36:49.042Z,585.46
2024-03-16T08:37:44.059Z,592.21
2024-03-16T08:38:40.452Z,588.04
2024-03-16T08:39:35.352Z,586.48
2024-03-16T08:40:30.654Z,582.90
2024-03-16T08:41:25.629Z,576.35
2024-03-16T08:42:20.592Z,581.88
2024-03-16T08:43:15.642Z,574.36
2024-03-16T08:44:10.770Z,572.39
2024-03-16T08:45:05.748Z,561.78
2024-03-16T08:46:00.902Z,567.52
2024-03-16T08:46:55.777Z,558.96
2024-03-16T08:47:50.792Z,558.02
2024-03-16T08:48:46.922Z,568.48
2024-03-16T08:49:42.215Z,536.04
2024-03-16T08:50:37.841Z,540.38
2024-03-16T08:51:33.442Z,533.47
2024-03-16T08:52:28.949Z,522.19
2024-03-16T08:53:24.289Z,525.48
2024-03-16T08:54:19.653Z,512.55
2024-03-16T08:55:15.132Z,515.73
2024-03-16T08:56:10.358Z,524.65
2024-03-16T08:57:05.696Z,516.92
2024-03-16T08:58:01.310Z,513.34
2024-03-16T08:58:56.965Z,499.88
2024-03-16T08:59:52.109Z,492.49
2024-03-16T09:00:47.563Z,491.40
2024-03-16T09:01:44.341Z,498.01
2024-03-16T09:02:39.632Z,492.49
2024-03-16T09:03:35.257Z,496.89
2024-03-16T09:04:30.609Z,502.89
2024-03-16T09:05:26.035Z,516.92
2024-03-16T09:06:21.456Z,533.89
2024-03-16T09:07:16.683Z,547.03
2024-03-16T09:08:11.671Z,505.94
2024-03-16T09:09:06.955Z,514.93
2024-03-16T09:10:01.760Z,497.27
2024-03-16T09:10:56.848Z,496.16
2024-03-16T09:11:51.846Z,504.79
2024-03-16T09:12:46.888Z,516.92
2024-03-16T09:13:41.997Z,528.81
2024-03-16T09:14:36.872Z,511.38
2024-03-16T09:15:31.923Z,516.92
2024-03-16T09:16:26.990Z,527.98
2024-03-16T09:17:21.943Z,539.95
2024-03-16T09:18:17.066Z,542.58
2024-03-16T09:19:12.294Z,543.02
2024-03-16T09:20:07.192Z,553.85
2024-03-16T09:21:02.256Z,552.47
2024-03-16T09:21:57.395Z,544.35
2024-03-16T09:22:52.769Z,552.93
2024-03-16T09:25:16.660Z,557.55
2024-03-16T09:26:10.902Z,436.12
2024-03-16T09:27:09.294Z,434.42
2024-03-16T09:28:01.828Z,458.30
2024-03-16T09:28:57.245Z,472.93
2024-03-16T09:29:52.628Z,495.79
2024-03-16T09:30:48.263Z,507.48
2024-03-16T09:31:43.622Z,515.73
2024-03-16T09:32:39.064Z,526.31
2024-03-16T09:33:34.823Z,545.69
2024-03-16T09:34:30.475Z,537.77
2024-03-16T09:35:25.682Z,530.92
2024-03-16T09:36:20.904Z,541.70
2024-03-16T09:37:16.539Z,568.48
2024-03-16T09:38:12.140Z,578.85
2024-03-16T09:39:07.306Z,573.87
2024-03-16T09:40:03.068Z,568.48
2024-03-16T09:40:58.804Z,568.97
2024-03-16T09:41:54.117Z,566.07
2024-03-16T09:42:49.716Z,593.27
2024-03-16T09:43:45.428Z,619.73
2024-03-16T09:44:40.465Z,653.76
2024-03-16T09:45:36.061Z,649.30
2024-03-16T09:46:31.597Z,653.76
2024-03-16T09:47:27.136Z,672.89
2024-03-16T09:48:25.396Z,657.63
2024-03-16T09:49:18.278Z,642.42
2024-03-16T09:50:13.708Z,673.57
2024-03-16T09:51:09.284Z,671.53
2024-03-16T09:52:04.750Z,642.42
2024-03-16T09:53:00.475Z,634.47
2024-03-16T09:53:56.013Z,633.27
2024-03-16T09:54:51.519Z,620.89
2024-03-16T09:55:47.012Z,593.27
2024-03-16T09:56:42.592Z,553.85
2024-03-16T09:57:37.955Z,587.52
2024-03-16T09:58:33.758Z,608.42
2024-03-16T09:59:31.093Z,629.09
2024-03-16T10:00:24.608Z,646.78
2024-03-16T10:01:19.961Z,646.16
2024-03-16T10:02:15.360Z,655.04
2024-03-16T10:03:10.890Z,668.84
2024-03-16T10:04:06.557Z,706.39
2024-03-16T10:05:01.971Z,735.21
2024-03-16T10:05:57.506Z,779.79
2024-03-16T10:06:52.990Z,787.61
2024-03-16T10:07:48.452Z,772.57
2024-03-16T10:08:43.829Z,737.65
2024-03-16T10:09:39.190Z,746.23
2024-03-16T10:10:34.482Z,742.58
2024-03-16T10:11:30.191Z,740.93
2024-03-16T10:12:25.481Z,724.82
2024-03-16T10:13:21.082Z,705.64
2024-03-16T10:14:16.440Z,632.67
2024-03-16T10:15:11.926Z,630.28
2024-03-16T10:16:07.423Z,644.91
2024-03-16T10:17:02.785Z,651.84
2024-03-16T10:17:58.230Z,648.04
2024-03-16T10:18:53.707Z,639.96
2024-03-16T10:19:49.260Z,648.67
2024-03-16T10:20:44.888Z,653.12
2024-03-16T10:21:40.277Z,634.47
2024-03-16T10:22:35.665Z,622.05
2024-03-16T10:23:31.318Z,624.38
2024-03-16T10:24:27.099Z,614.59
2024-03-16T10:25:22.400Z,602.92
2024-03-16T10:26:18.533Z,599.13
2024-03-16T10:27:13.366Z,601.84
2024-03-16T10:28:09.014Z,604.56
2024-03-16T10:29:04.540Z,606.21
2024-03-16T10:29:59.821Z,607.32
2024-03-16T10:30:55.465Z,588.04
2024-03-16T10:31:54.985Z,600.21
2024-03-16T10:32:46.565Z,614.03
2024-03-16T10:33:41.946Z,612.90
2024-03-16T10:34:37.348Z,618.01
2024-03-16T10:35:32.706Z,629.68
2024-03-16T10:36:28.165Z,636.29
2024-03-16T10:37:23.554Z,646.16
2024-03-16T10:38:19.038Z,658.28
2024-03-16T10:39:14.709Z,672.89
2024-03-16T10:40:10.147Z,678.36
2024-03-16T10:41:05.572Z,679.75
2024-03-16T10:42:01.180Z,688.17
2024-03-16T10:42:56.741Z,686.04
2024-03-16T10:43:52.134Z,699.72
2024-03-16T10:44:47.802Z,681.83
2024-03-16T10:45:43.211Z,689.59
2024-03-16T10:46:38.613Z,708.64
2024-03-16T10:47:33.957Z,704.90
2024-03-16T10:48:29.624Z,690.30
2024-03-16T10:49:25.063Z,667.50
2024-03-16T10:50:20.743Z,656.33
2024-03-16T10:51:16.189Z,658.28
2024-03-16T10:52:12.158Z,643.04
2024-03-16T10:53:06.835Z,624.38
2024-03-16T10:54:02.188Z,602.38
2024-03-16T10:54:57.833Z,577.34
2024-03-16T10:55:53.209Z,571.41
2024-03-16T10:56:49.200Z,566.07
2024-03-16T10:57:44.797Z,553.39
2024-03-16T10:58:39.685Z,543.91
2024-03-16T10:59:34.965Z,530.50
2024-03-16T11:00:30.622Z,519.34
2024-03-16T11:01:25.798Z,497.27
2024-03-16T11:02:21.332Z,478.02
2024-03-16T11:03:16.694Z,464.69
2024-03-16T11:04:12.097Z,450.26
2024-03-16T11:05:07.533Z,438.13
2024-03-16T11:06:02.878Z,420.45
2024-03-16T11:06:58.389Z,410.61
2024-03-16T11:07:53.871Z,397.64
2024-03-16T11:08:49.386Z,385.68
2024-03-16T11:09:44.676Z,369.64
2024-03-16T11:10:40.397Z,353.71
2024-03-16T11:11:35.596Z,340.14
2024-03-16T11:12:31.061Z,325.95
2024-03-16T11:13:26.437Z,323.38
2024-03-16T11:14:22.026Z,303.91
2024-03-16T11:15:17.601Z,285.16
2024-03-16T11:16:13.010Z,280.29
2024-03-16T11:17:08.490Z,280.77
2024-03-16T11:18:04.104Z,278.38
2024-03-16T11:18:59.532Z,281.25
2024-03-16T11:19:57.388Z,285.40
2024-03-16T11:20:50.743Z,292.27
2024-03-16T11:21:46.139Z,297.30
2024-03-16T11:22:41.660Z,307.61
2024-03-16T11:23:37.024Z,310.23
2024-03-16T11:24:32.472Z,318.98
2024-03-16T11:25:28.046Z,320.22
2024-03-16T11:26:23.213Z,331.55
2024-03-16T11:27:18.705Z,342.27
2024-03-16T11:28:14.790Z,353.33
2024-03-16T11:29:09.666Z,365.12
2024-03-16T11:30:05.534Z,380.18
2024-03-16T11:31:00.597Z,393.88
2024-03-16T11:31:55.910Z,409.60